Callender, IA (50523)

6:55 PM CDT on August 04, 2015 (GMT -0500)
IEM | | Change Station
CLOSE
Current Station
Personal Weather Station
Location: Barnum, IA
Elevation: 1209 ft
Nearby Weather Stations

Elev 1209 ft 42.50 °N, 94.36 °W | Updated 16 minutes ago

Partly Cloudy
Partly Cloudy
79 °F
Feels Like 80 °F
N
0
Wind Variable Wind from SSE
Gusts 0.0 mph

Today
High -- | Low -- °F
--% Chance of Precip.
Yesterday
High -- | Low -- °F
Precip. -- in
6:12 AM 8:33 PM
Waning Gibbous, 73% visible
Pressure 30.01 in
Visibility 10.0 miles
Clouds Few 4000 ft
Scattered Clouds 5000 ft
Heat Index 80 °F
Dew Point 61 °F
Humidity 54%
Rainfall in
Snow Depth Not available.
UV 1 out of 12
Pollen 6.70 out of 12
Air Quality Not available.
Flu Activity Not available.
METAR KFOD 042335Z 09004KT 10SM FEW040 SCT050 24/16 A3001 RMK AO1

More Conditions Fewer Conditions

Pressure 30.01 in
Visibility 10.0 miles
Clouds Few 4000 ft
Scattered Clouds 5000 ft
Heat Index 80 °F
Dew Point 61 °F
Humidity 54%
Rainfall in
Snow Depth Not available.
UV 1 out of 12
Pollen 6.70 out of 12
Air Quality Not available.
Flu Activity Not available.
METAR KFOD 042335Z 09004KT 10SM FEW040 SCT050 24/16 A3001 RMK AO1

More Conditions Fewer Conditions

10-Day Weather Forecast

×

Almanac

Astronomy

Aug. 04, 2015 Rise Set
Actual Time
Civil Twilight
Nautical Twilight
Astronomical Twilight
Moon
Length of Visible Light
Length of Day
Tomorrow will be .
, % of the Moon is Illuminated

Today's Extremes

State Highs State Lows

Community

WunderPhotos

Upload Photos

1,844,023 photos uploaded!

WunderBlogs® & News

Nearby

Air Quality

  Air Quality AQ Index Pollutant
Not available.

Snow Depth

Station Depth Elevation

Earthquake Activity

City Distance Mag. Time & Date
Minimum magnitude displayed is 2.5.

Coastal Water Temperatures

Place Temperature

Stations

Nearby Weather Stations

Station Location Temp. Windchill Dew Point Humidity Wind Precip. Elev Updated Type